<?xml version="1.0" encoding="UTF-8" standalone="no" ?>
<gpx xmlns="http://www.topografix.com/GPX/1/1" xmlns:xsi="http://www.w3.org/2001/XMLSchema-instance" xsi:schemaLocation="http://www.topografix.com/GPX/1/1 http://www.topografix.com/GPX/1/1/gpx.xsd" version="1.1" creator="VisuGPX - https://www.visugpx.com">
  <metadata>
    <name>St Rémy-De-Chaudes-Aigues Le Puy De La Tuile</name>
    <desc><![CDATA[Bonus la rando en vidéo : 
https://youtu.be/EgQLpa1jR6M]]></desc>
  </metadata>
  <wpt lat="44.77469" lon="3.03055">
    <ele>1082</ele>
    <name><![CDATA[Départ]]></name>
    <type><![CDATA[GENERIC]]></type>
  </wpt>
  <wpt lat="44.77468" lon="3.03055">
    <ele>1082</ele>
    <name><![CDATA[Arrivée ]]></name>
    <type><![CDATA[GENERIC]]></type>
  </wpt>
  <trk>
    <name><![CDATA[St Rémy-De-Chaudes-Aigues Le Puy De La Tuile]]></name>
    <trkseg>
      <trkpt lat="44.77469" lon="3.03055">
        <ele>1082</ele>
        <time>2026-08-18T05:40:38.000Z</time>
      </trkpt>
      <trkpt lat="44.77513" lon="3.03042">
        <ele>1084</ele>
        <time>2026-08-18T05:41:50.000Z</time>
      </trkpt>
      <trkpt lat="44.77534" lon="3.03058">
        <ele>1084</ele>
        <time>2026-08-18T05:42:17.000Z</time>
      </trkpt>
      <trkpt lat="44.77573" lon="3.03049">
        <ele>1092</ele>
        <time>2026-08-18T05:44:25.000Z</time>
      </trkpt>
      <trkpt lat="44.77583" lon="3.0308">
        <ele>1094</ele>
        <time>2026-08-18T05:45:14.000Z</time>
      </trkpt>
      <trkpt lat="44.77611" lon="3.03114">
        <ele>1093</ele>
        <time>2026-08-18T05:45:56.000Z</time>
      </trkpt>
      <trkpt lat="44.7764" lon="3.03084">
        <ele>1099</ele>
        <time>2026-08-18T05:48:08.000Z</time>
      </trkpt>
      <trkpt lat="44.77639" lon="3.03082">
        <ele>1099</ele>
        <time>2026-08-18T05:48:11.000Z</time>
      </trkpt>
      <trkpt lat="44.77625" lon="3.0304">
        <ele>1100</ele>
        <time>2026-08-18T05:48:59.000Z</time>
      </trkpt>
      <trkpt lat="44.77613" lon="3.02957">
        <ele>1108</ele>
        <time>2026-08-18T05:51:30.000Z</time>
      </trkpt>
      <trkpt lat="44.77602" lon="3.02941">
        <ele>1109</ele>
        <time>2026-08-18T05:51:58.000Z</time>
      </trkpt>
      <trkpt lat="44.77602" lon="3.02941">
        <ele>1109</ele>
        <time>2026-08-18T05:51:58.000Z</time>
      </trkpt>
      <trkpt lat="44.7761" lon="3.02936">
        <ele>1109</ele>
        <time>2026-08-18T05:52:08.000Z</time>
      </trkpt>
      <trkpt lat="44.77615" lon="3.02939">
        <ele>1110</ele>
        <time>2026-08-18T05:52:25.000Z</time>
      </trkpt>
      <trkpt lat="44.77626" lon="3.02955">
        <ele>1112</ele>
        <time>2026-08-18T05:53:04.000Z</time>
      </trkpt>
      <trkpt lat="44.77645" lon="3.02957">
        <ele>1117</ele>
        <time>2026-08-18T05:54:17.000Z</time>
      </trkpt>
      <trkpt lat="44.77645" lon="3.02957">
        <ele>1117</ele>
        <time>2026-08-18T05:54:17.000Z</time>
      </trkpt>
      <trkpt lat="44.77679" lon="3.02962">
        <ele>1126</ele>
        <time>2026-08-18T05:56:29.000Z</time>
      </trkpt>
      <trkpt lat="44.77736" lon="3.02964">
        <ele>1135</ele>
        <time>2026-08-18T05:59:07.000Z</time>
      </trkpt>
      <trkpt lat="44.77784" lon="3.02971">
        <ele>1141</ele>
        <time>2026-08-18T06:01:03.000Z</time>
      </trkpt>
      <trkpt lat="44.77825" lon="3.02965">
        <ele>1147</ele>
        <time>2026-08-18T06:02:52.000Z</time>
      </trkpt>
      <trkpt lat="44.77871" lon="3.03002">
        <ele>1149</ele>
        <time>2026-08-18T06:04:13.000Z</time>
      </trkpt>
      <trkpt lat="44.77888" lon="3.03013">
        <ele>1150</ele>
        <time>2026-08-18T06:04:45.000Z</time>
      </trkpt>
      <trkpt lat="44.779" lon="3.03014">
        <ele>1149</ele>
        <time>2026-08-18T06:04:58.000Z</time>
      </trkpt>
      <trkpt lat="44.77956" lon="3.03058">
        <ele>1149</ele>
        <time>2026-08-18T06:06:11.000Z</time>
      </trkpt>
      <trkpt lat="44.7798" lon="3.0307">
        <ele>1149</ele>
        <time>2026-08-18T06:06:41.000Z</time>
      </trkpt>
      <trkpt lat="44.77998" lon="3.03071">
        <ele>1150</ele>
        <time>2026-08-18T06:07:11.000Z</time>
      </trkpt>
      <trkpt lat="44.77998" lon="3.0307">
        <ele>1150</ele>
        <time>2026-08-18T05:58:38.000Z</time>
      </trkpt>
      <trkpt lat="44.77998" lon="3.03071">
        <ele>1150</ele>
        <time>2026-08-18T05:58:39.000Z</time>
      </trkpt>
      <trkpt lat="44.78041" lon="3.03068">
        <ele>1151</ele>
        <time>2026-08-18T05:59:39.000Z</time>
      </trkpt>
      <trkpt lat="44.78126" lon="3.03046">
        <ele>1153</ele>
        <time>2026-08-18T06:01:38.000Z</time>
      </trkpt>
      <trkpt lat="44.78166" lon="3.03041">
        <ele>1153</ele>
        <time>2026-08-18T06:02:24.000Z</time>
      </trkpt>
      <trkpt lat="44.78264" lon="3.03037">
        <ele>1159</ele>
        <time>2026-08-18T06:05:18.000Z</time>
      </trkpt>
      <trkpt lat="44.78286" lon="3.03031">
        <ele>1161</ele>
        <time>2026-08-18T06:06:05.000Z</time>
      </trkpt>
      <trkpt lat="44.78317" lon="3.03012">
        <ele>1163</ele>
        <time>2026-08-18T06:07:04.000Z</time>
      </trkpt>
      <trkpt lat="44.78338" lon="3.03005">
        <ele>1165</ele>
        <time>2026-08-18T06:07:49.000Z</time>
      </trkpt>
      <trkpt lat="44.78364" lon="3.03001">
        <ele>1167</ele>
        <time>2026-08-18T06:08:39.000Z</time>
      </trkpt>
      <trkpt lat="44.78421" lon="3.03002">
        <ele>1174</ele>
        <time>2026-08-18T06:10:57.000Z</time>
      </trkpt>
      <trkpt lat="44.78497" lon="3.0299">
        <ele>1177</ele>
        <time>2026-08-18T06:12:55.000Z</time>
      </trkpt>
      <trkpt lat="44.78502" lon="3.02978">
        <ele>1177</ele>
        <time>2026-08-18T06:13:06.000Z</time>
      </trkpt>
      <trkpt lat="44.78502" lon="3.02978">
        <ele>1177</ele>
        <time>2026-08-18T06:13:06.000Z</time>
      </trkpt>
      <trkpt lat="44.78501" lon="3.02967">
        <ele>1177</ele>
        <time>2026-08-18T06:13:15.000Z</time>
      </trkpt>
      <trkpt lat="44.78468" lon="3.02933">
        <ele>1177</ele>
        <time>2026-08-18T06:14:02.000Z</time>
      </trkpt>
      <trkpt lat="44.78417" lon="3.02841">
        <ele>1180</ele>
        <time>2026-08-18T06:16:07.000Z</time>
      </trkpt>
      <trkpt lat="44.78349" lon="3.02788">
        <ele>1186</ele>
        <time>2026-08-18T06:18:38.000Z</time>
      </trkpt>
      <trkpt lat="44.78335" lon="3.02769">
        <ele>1190</ele>
        <time>2026-08-18T06:19:42.000Z</time>
      </trkpt>
      <trkpt lat="44.78311" lon="3.02723">
        <ele>1197</ele>
        <time>2026-08-18T06:21:40.000Z</time>
      </trkpt>
      <trkpt lat="44.78253" lon="3.02656">
        <ele>1205</ele>
        <time>2026-08-18T06:24:28.000Z</time>
      </trkpt>
      <trkpt lat="44.78192" lon="3.02592">
        <ele>1212</ele>
        <time>2026-08-18T06:27:07.000Z</time>
      </trkpt>
      <trkpt lat="44.78099" lon="3.02473">
        <ele>1219</ele>
        <time>2026-08-18T06:30:43.000Z</time>
      </trkpt>
      <trkpt lat="44.78036" lon="3.02394">
        <ele>1220</ele>
        <time>2026-08-18T06:32:29.000Z</time>
      </trkpt>
      <trkpt lat="44.78004" lon="3.02334">
        <ele>1221</ele>
        <time>2026-08-18T06:33:40.000Z</time>
      </trkpt>
      <trkpt lat="44.77991" lon="3.02289">
        <ele>1223</ele>
        <time>2026-08-18T06:34:40.000Z</time>
      </trkpt>
      <trkpt lat="44.77972" lon="3.02275">
        <ele>1224</ele>
        <time>2026-08-18T06:35:15.000Z</time>
      </trkpt>
      <trkpt lat="44.77943" lon="3.02219">
        <ele>1228</ele>
        <time>2026-08-18T06:36:53.000Z</time>
      </trkpt>
      <trkpt lat="44.77934" lon="3.02176">
        <ele>1232</ele>
        <time>2026-08-18T06:38:11.000Z</time>
      </trkpt>
      <trkpt lat="44.7792" lon="3.02133">
        <ele>1236</ele>
        <time>2026-08-18T06:39:31.000Z</time>
      </trkpt>
      <trkpt lat="44.77899" lon="3.02093">
        <ele>1240</ele>
        <time>2026-08-18T06:40:52.000Z</time>
      </trkpt>
      <trkpt lat="44.77882" lon="3.02064">
        <ele>1243</ele>
        <time>2026-08-18T06:41:54.000Z</time>
      </trkpt>
      <trkpt lat="44.77848" lon="3.02038">
        <ele>1248</ele>
        <time>2026-08-18T06:43:30.000Z</time>
      </trkpt>
      <trkpt lat="44.77836" lon="3.02022">
        <ele>1249</ele>
        <time>2026-08-18T06:43:59.000Z</time>
      </trkpt>
      <trkpt lat="44.7782" lon="3.0198">
        <ele>1252</ele>
        <time>2026-08-18T06:45:08.000Z</time>
      </trkpt>
      <trkpt lat="44.77769" lon="3.01902">
        <ele>1258</ele>
        <time>2026-08-18T06:47:36.000Z</time>
      </trkpt>
      <trkpt lat="44.77769" lon="3.01902">
        <ele>1258</ele>
        <time>2026-08-18T06:47:36.000Z</time>
      </trkpt>
      <trkpt lat="44.7776" lon="3.01819">
        <ele>1261</ele>
        <time>2026-08-18T06:49:15.000Z</time>
      </trkpt>
      <trkpt lat="44.77742" lon="3.01703">
        <ele>1258</ele>
        <time>2026-08-18T06:50:52.000Z</time>
      </trkpt>
      <trkpt lat="44.77745" lon="3.01609">
        <ele>1255</ele>
        <time>2026-08-18T06:52:08.000Z</time>
      </trkpt>
      <trkpt lat="44.77718" lon="3.01466">
        <ele>1253</ele>
        <time>2026-08-18T06:54:09.000Z</time>
      </trkpt>
      <trkpt lat="44.77716" lon="3.01417">
        <ele>1253</ele>
        <time>2026-08-18T06:54:49.000Z</time>
      </trkpt>
      <trkpt lat="44.777" lon="3.01351">
        <ele>1251</ele>
        <time>2026-08-18T06:55:46.000Z</time>
      </trkpt>
      <trkpt lat="44.7767" lon="3.01125">
        <ele>1249</ele>
        <time>2026-08-18T06:58:52.000Z</time>
      </trkpt>
      <trkpt lat="44.7767" lon="3.01125">
        <ele>1249</ele>
        <time>2026-08-18T06:58:52.000Z</time>
      </trkpt>
      <trkpt lat="44.77671" lon="3.01117">
        <ele>1250</ele>
        <time>2026-08-18T06:59:09.000Z</time>
      </trkpt>
      <trkpt lat="44.77679" lon="3.0112">
        <ele>1250</ele>
        <time>2026-08-18T06:59:19.000Z</time>
      </trkpt>
      <trkpt lat="44.77754" lon="3.01117">
        <ele>1249</ele>
        <time>2026-08-18T07:00:45.000Z</time>
      </trkpt>
      <trkpt lat="44.77852" lon="3.01138">
        <ele>1247</ele>
        <time>2026-08-18T07:02:38.000Z</time>
      </trkpt>
      <trkpt lat="44.77902" lon="3.01141">
        <ele>1246</ele>
        <time>2026-08-18T07:03:36.000Z</time>
      </trkpt>
      <trkpt lat="44.78147" lon="3.01145">
        <ele>1234</ele>
        <time>2026-08-18T07:08:16.000Z</time>
      </trkpt>
      <trkpt lat="44.78237" lon="3.01162">
        <ele>1230</ele>
        <time>2026-08-18T07:10:00.000Z</time>
      </trkpt>
      <trkpt lat="44.78264" lon="3.01152">
        <ele>1228</ele>
        <time>2026-08-18T07:10:33.000Z</time>
      </trkpt>
      <trkpt lat="44.78265" lon="3.01152">
        <ele>1228</ele>
        <time>2026-08-18T07:10:33.000Z</time>
      </trkpt>
      <trkpt lat="44.78303" lon="3.01125">
        <ele>1226</ele>
        <time>2026-08-18T07:11:22.000Z</time>
      </trkpt>
      <trkpt lat="44.78369" lon="3.01066">
        <ele>1222</ele>
        <time>2026-08-18T07:12:52.000Z</time>
      </trkpt>
      <trkpt lat="44.78419" lon="3.01037">
        <ele>1218</ele>
        <time>2026-08-18T07:13:54.000Z</time>
      </trkpt>
      <trkpt lat="44.78449" lon="3.01026">
        <ele>1216</ele>
        <time>2026-08-18T07:14:29.000Z</time>
      </trkpt>
      <trkpt lat="44.78449" lon="3.01026">
        <ele>1216</ele>
        <time>2026-08-18T07:14:29.000Z</time>
      </trkpt>
      <trkpt lat="44.78495" lon="3.01009">
        <ele>1211</ele>
        <time>2026-08-18T07:15:23.000Z</time>
      </trkpt>
      <trkpt lat="44.78527" lon="3.0099">
        <ele>1208</ele>
        <time>2026-08-18T07:16:03.000Z</time>
      </trkpt>
      <trkpt lat="44.78566" lon="3.00982">
        <ele>1204</ele>
        <time>2026-08-18T07:16:49.000Z</time>
      </trkpt>
      <trkpt lat="44.78566" lon="3.00982">
        <ele>1204</ele>
        <time>2026-08-18T07:16:49.000Z</time>
      </trkpt>
      <trkpt lat="44.78566" lon="3.00982">
        <ele>1204</ele>
        <time>2026-08-18T07:16:49.000Z</time>
      </trkpt>
      <trkpt lat="44.78637" lon="3.00991">
        <ele>1199</ele>
        <time>2026-08-18T07:18:10.000Z</time>
      </trkpt>
      <trkpt lat="44.78704" lon="3.00982">
        <ele>1194</ele>
        <time>2026-08-18T07:19:27.000Z</time>
      </trkpt>
      <trkpt lat="44.78745" lon="3.00978">
        <ele>1193</ele>
        <time>2026-08-18T07:20:14.000Z</time>
      </trkpt>
      <trkpt lat="44.78817" lon="3.00991">
        <ele>1188</ele>
        <time>2026-08-18T07:21:37.000Z</time>
      </trkpt>
      <trkpt lat="44.78934" lon="3.00989">
        <ele>1177</ele>
        <time>2026-08-18T07:23:50.000Z</time>
      </trkpt>
      <trkpt lat="44.79037" lon="3.00959">
        <ele>1162</ele>
        <time>2026-08-18T07:25:51.000Z</time>
      </trkpt>
      <trkpt lat="44.7916" lon="3.00935">
        <ele>1148</ele>
        <time>2026-08-18T07:28:13.000Z</time>
      </trkpt>
      <trkpt lat="44.79324" lon="3.00902">
        <ele>1135</ele>
        <time>2026-08-18T07:31:23.000Z</time>
      </trkpt>
      <trkpt lat="44.79324" lon="3.00902">
        <ele>1135</ele>
        <time>2026-08-18T07:31:23.000Z</time>
      </trkpt>
      <trkpt lat="44.79335" lon="3.00901">
        <ele>1135</ele>
        <time>2026-08-18T07:31:35.000Z</time>
      </trkpt>
      <trkpt lat="44.79368" lon="3.00911">
        <ele>1133</ele>
        <time>2026-08-18T07:32:14.000Z</time>
      </trkpt>
      <trkpt lat="44.79443" lon="3.00951">
        <ele>1126</ele>
        <time>2026-08-18T07:33:46.000Z</time>
      </trkpt>
      <trkpt lat="44.79462" lon="3.00969">
        <ele>1124</ele>
        <time>2026-08-18T07:34:12.000Z</time>
      </trkpt>
      <trkpt lat="44.79491" lon="3.01015">
        <ele>1118</ele>
        <time>2026-08-18T07:35:01.000Z</time>
      </trkpt>
      <trkpt lat="44.79515" lon="3.01033">
        <ele>1113</ele>
        <time>2026-08-18T07:35:32.000Z</time>
      </trkpt>
      <trkpt lat="44.79528" lon="3.01038">
        <ele>1110</ele>
        <time>2026-08-18T07:35:47.000Z</time>
      </trkpt>
      <trkpt lat="44.79531" lon="3.01008">
        <ele>1109</ele>
        <time>2026-08-18T07:36:12.000Z</time>
      </trkpt>
      <trkpt lat="44.79536" lon="3.00997">
        <ele>1107</ele>
        <time>2026-08-18T07:36:22.000Z</time>
      </trkpt>
      <trkpt lat="44.79543" lon="3.00988">
        <ele>1106</ele>
        <time>2026-08-18T07:36:32.000Z</time>
      </trkpt>
      <trkpt lat="44.79558" lon="3.00981">
        <ele>1106</ele>
        <time>2026-08-18T07:36:51.000Z</time>
      </trkpt>
      <trkpt lat="44.79566" lon="3.00981">
        <ele>1106</ele>
        <time>2026-08-18T07:37:01.000Z</time>
      </trkpt>
      <trkpt lat="44.79614" lon="3.01017">
        <ele>1110</ele>
        <time>2026-08-18T07:38:44.000Z</time>
      </trkpt>
      <trkpt lat="44.79645" lon="3.01031">
        <ele>1110</ele>
        <time>2026-08-18T07:39:22.000Z</time>
      </trkpt>
      <trkpt lat="44.79741" lon="3.0105">
        <ele>1112</ele>
        <time>2026-08-18T07:41:33.000Z</time>
      </trkpt>
      <trkpt lat="44.79785" lon="3.0105">
        <ele>1112</ele>
        <time>2026-08-18T07:42:24.000Z</time>
      </trkpt>
      <trkpt lat="44.79884" lon="3.01066">
        <ele>1101</ele>
        <time>2026-08-18T07:44:18.000Z</time>
      </trkpt>
      <trkpt lat="44.79884" lon="3.01066">
        <ele>1101</ele>
        <time>2026-08-18T07:44:18.000Z</time>
      </trkpt>
      <trkpt lat="44.80004" lon="3.01133">
        <ele>1097</ele>
        <time>2026-08-18T07:46:45.000Z</time>
      </trkpt>
      <trkpt lat="44.8015" lon="3.01206">
        <ele>1099</ele>
        <time>2026-08-18T07:50:03.000Z</time>
      </trkpt>
      <trkpt lat="44.80214" lon="3.01247">
        <ele>1099</ele>
        <time>2026-08-18T07:51:24.000Z</time>
      </trkpt>
      <trkpt lat="44.80228" lon="3.01267">
        <ele>1099</ele>
        <time>2026-08-18T07:51:47.000Z</time>
      </trkpt>
      <trkpt lat="44.80228" lon="3.01267">
        <ele>1099</ele>
        <time>2026-08-18T07:51:47.000Z</time>
      </trkpt>
      <trkpt lat="44.80298" lon="3.01444">
        <ele>1098</ele>
        <time>2026-08-18T07:54:32.000Z</time>
      </trkpt>
      <trkpt lat="44.80344" lon="3.01521">
        <ele>1098</ele>
        <time>2026-08-18T07:55:53.000Z</time>
      </trkpt>
      <trkpt lat="44.80347" lon="3.01541">
        <ele>1098</ele>
        <time>2026-08-18T07:56:10.000Z</time>
      </trkpt>
      <trkpt lat="44.80357" lon="3.01568">
        <ele>1097</ele>
        <time>2026-08-18T07:56:35.000Z</time>
      </trkpt>
      <trkpt lat="44.80346" lon="3.01705">
        <ele>1091</ele>
        <time>2026-08-18T07:58:27.000Z</time>
      </trkpt>
      <trkpt lat="44.80346" lon="3.01711">
        <ele>1091</ele>
        <time>2026-08-18T07:58:32.000Z</time>
      </trkpt>
      <trkpt lat="44.8038" lon="3.01788">
        <ele>1085</ele>
        <time>2026-08-18T07:59:45.000Z</time>
      </trkpt>
      <trkpt lat="44.80409" lon="3.01836">
        <ele>1081</ele>
        <time>2026-08-18T08:00:37.000Z</time>
      </trkpt>
      <trkpt lat="44.80424" lon="3.01925">
        <ele>1073</ele>
        <time>2026-08-18T08:01:51.000Z</time>
      </trkpt>
      <trkpt lat="44.8043" lon="3.01944">
        <ele>1070</ele>
        <time>2026-08-18T08:02:08.000Z</time>
      </trkpt>
      <trkpt lat="44.80445" lon="3.01963">
        <ele>1068</ele>
        <time>2026-08-18T08:02:32.000Z</time>
      </trkpt>
      <trkpt lat="44.80456" lon="3.01976">
        <ele>1068</ele>
        <time>2026-08-18T08:02:48.000Z</time>
      </trkpt>
      <trkpt lat="44.8053" lon="3.02041">
        <ele>1057</ele>
        <time>2026-08-18T08:04:28.000Z</time>
      </trkpt>
      <trkpt lat="44.80566" lon="3.02066">
        <ele>1051</ele>
        <time>2026-08-18T08:05:14.000Z</time>
      </trkpt>
      <trkpt lat="44.80589" lon="3.02089">
        <ele>1046</ele>
        <time>2026-08-18T08:05:46.000Z</time>
      </trkpt>
      <trkpt lat="44.80645" lon="3.02128">
        <ele>1037</ele>
        <time>2026-08-18T08:06:58.000Z</time>
      </trkpt>
      <trkpt lat="44.8069" lon="3.02185">
        <ele>1031</ele>
        <time>2026-08-18T08:08:07.000Z</time>
      </trkpt>
      <trkpt lat="44.80697" lon="3.02199">
        <ele>1030</ele>
        <time>2026-08-18T08:08:21.000Z</time>
      </trkpt>
      <trkpt lat="44.807" lon="3.02217">
        <ele>1030</ele>
        <time>2026-08-18T08:08:36.000Z</time>
      </trkpt>
      <trkpt lat="44.807" lon="3.02217">
        <ele>1030</ele>
        <time>2026-08-18T08:08:36.000Z</time>
      </trkpt>
      <trkpt lat="44.80702" lon="3.02227">
        <ele>1030</ele>
        <time>2026-08-18T08:08:44.000Z</time>
      </trkpt>
      <trkpt lat="44.80661" lon="3.02296">
        <ele>1027</ele>
        <time>2026-08-18T08:09:57.000Z</time>
      </trkpt>
      <trkpt lat="44.80626" lon="3.02408">
        <ele>1022</ele>
        <time>2026-08-18T08:11:36.000Z</time>
      </trkpt>
      <trkpt lat="44.80611" lon="3.02405">
        <ele>1022</ele>
        <time>2026-08-18T08:11:53.000Z</time>
      </trkpt>
      <trkpt lat="44.806" lon="3.02409">
        <ele>1021</ele>
        <time>2026-08-18T08:12:07.000Z</time>
      </trkpt>
      <trkpt lat="44.80591" lon="3.02436">
        <ele>1022</ele>
        <time>2026-08-18T08:12:41.000Z</time>
      </trkpt>
      <trkpt lat="44.80573" lon="3.02467">
        <ele>1023</ele>
        <time>2026-08-18T08:13:24.000Z</time>
      </trkpt>
      <trkpt lat="44.80513" lon="3.02536">
        <ele>1031</ele>
        <time>2026-08-18T08:16:14.000Z</time>
      </trkpt>
      <trkpt lat="44.80435" lon="3.02539">
        <ele>1040</ele>
        <time>2026-08-18T08:19:16.000Z</time>
      </trkpt>
      <trkpt lat="44.80422" lon="3.02541">
        <ele>1042</ele>
        <time>2026-08-18T08:19:51.000Z</time>
      </trkpt>
      <trkpt lat="44.80413" lon="3.02548">
        <ele>1043</ele>
        <time>2026-08-18T08:20:12.000Z</time>
      </trkpt>
      <trkpt lat="44.80396" lon="3.02529">
        <ele>1042</ele>
        <time>2026-08-18T08:20:37.000Z</time>
      </trkpt>
      <trkpt lat="44.80351" lon="3.02504">
        <ele>1040</ele>
        <time>2026-08-18T08:21:32.000Z</time>
      </trkpt>
      <trkpt lat="44.80302" lon="3.02483">
        <ele>1039</ele>
        <time>2026-08-18T08:22:31.000Z</time>
      </trkpt>
      <trkpt lat="44.80253" lon="3.02472">
        <ele>1039</ele>
        <time>2026-08-18T08:23:27.000Z</time>
      </trkpt>
      <trkpt lat="44.80229" lon="3.02457">
        <ele>1039</ele>
        <time>2026-08-18T08:23:57.000Z</time>
      </trkpt>
      <trkpt lat="44.80229" lon="3.02457">
        <ele>1039</ele>
        <time>2026-08-18T08:23:57.000Z</time>
      </trkpt>
      <trkpt lat="44.80219" lon="3.02432">
        <ele>1040</ele>
        <time>2026-08-18T08:24:30.000Z</time>
      </trkpt>
      <trkpt lat="44.80218" lon="3.0241">
        <ele>1040</ele>
        <time>2026-08-18T08:24:48.000Z</time>
      </trkpt>
      <trkpt lat="44.8022" lon="3.02382">
        <ele>1041</ele>
        <time>2026-08-18T08:25:21.000Z</time>
      </trkpt>
      <trkpt lat="44.80242" lon="3.0229">
        <ele>1047</ele>
        <time>2026-08-18T08:27:42.000Z</time>
      </trkpt>
      <trkpt lat="44.80241" lon="3.02281">
        <ele>1048</ele>
        <time>2026-08-18T08:28:00.000Z</time>
      </trkpt>
      <trkpt lat="44.80258" lon="3.02225">
        <ele>1049</ele>
        <time>2026-08-18T08:28:59.000Z</time>
      </trkpt>
      <trkpt lat="44.80263" lon="3.02199">
        <ele>1050</ele>
        <time>2026-08-18T08:29:32.000Z</time>
      </trkpt>
      <trkpt lat="44.80258" lon="3.0218">
        <ele>1051</ele>
        <time>2026-08-18T08:29:59.000Z</time>
      </trkpt>
      <trkpt lat="44.8025" lon="3.02161">
        <ele>1052</ele>
        <time>2026-08-18T08:30:27.000Z</time>
      </trkpt>
      <trkpt lat="44.80226" lon="3.02129">
        <ele>1052</ele>
        <time>2026-08-18T08:31:05.000Z</time>
      </trkpt>
      <trkpt lat="44.80195" lon="3.02099">
        <ele>1053</ele>
        <time>2026-08-18T08:31:59.000Z</time>
      </trkpt>
      <trkpt lat="44.80199" lon="3.02071">
        <ele>1053</ele>
        <time>2026-08-18T08:32:22.000Z</time>
      </trkpt>
      <trkpt lat="44.80213" lon="3.0205">
        <ele>1054</ele>
        <time>2026-08-18T08:32:56.000Z</time>
      </trkpt>
      <trkpt lat="44.80235" lon="3.02031">
        <ele>1057</ele>
        <time>2026-08-18T08:33:56.000Z</time>
      </trkpt>
      <trkpt lat="44.80243" lon="3.02018">
        <ele>1058</ele>
        <time>2026-08-18T08:34:21.000Z</time>
      </trkpt>
      <trkpt lat="44.80249" lon="3.01996">
        <ele>1060</ele>
        <time>2026-08-18T08:35:01.000Z</time>
      </trkpt>
      <trkpt lat="44.80249" lon="3.01987">
        <ele>1060</ele>
        <time>2026-08-18T08:35:09.000Z</time>
      </trkpt>
      <trkpt lat="44.80219" lon="3.01938">
        <ele>1065</ele>
        <time>2026-08-18T08:36:52.000Z</time>
      </trkpt>
      <trkpt lat="44.80181" lon="3.0189">
        <ele>1074</ele>
        <time>2026-08-18T08:39:23.000Z</time>
      </trkpt>
      <trkpt lat="44.80123" lon="3.0183">
        <ele>1085</ele>
        <time>2026-08-18T08:42:38.000Z</time>
      </trkpt>
      <trkpt lat="44.80113" lon="3.01807">
        <ele>1086</ele>
        <time>2026-08-18T08:43:10.000Z</time>
      </trkpt>
      <trkpt lat="44.8011" lon="3.01783">
        <ele>1089</ele>
        <time>2026-08-18T08:44:01.000Z</time>
      </trkpt>
      <trkpt lat="44.8011" lon="3.01783">
        <ele>1089</ele>
        <time>2026-08-18T08:44:01.000Z</time>
      </trkpt>
      <trkpt lat="44.8011" lon="3.01755">
        <ele>1092</ele>
        <time>2026-08-18T08:44:55.000Z</time>
      </trkpt>
      <trkpt lat="44.80118" lon="3.01702">
        <ele>1093</ele>
        <time>2026-08-18T08:45:49.000Z</time>
      </trkpt>
      <trkpt lat="44.80127" lon="3.01671">
        <ele>1095</ele>
        <time>2026-08-18T08:46:36.000Z</time>
      </trkpt>
      <trkpt lat="44.80164" lon="3.01583">
        <ele>1093</ele>
        <time>2026-08-18T08:47:59.000Z</time>
      </trkpt>
      <trkpt lat="44.80169" lon="3.0156">
        <ele>1093</ele>
        <time>2026-08-18T08:48:18.000Z</time>
      </trkpt>
      <trkpt lat="44.80172" lon="3.01459">
        <ele>1095</ele>
        <time>2026-08-18T08:50:01.000Z</time>
      </trkpt>
      <trkpt lat="44.80154" lon="3.0126">
        <ele>1099</ele>
        <time>2026-08-18T08:53:25.000Z</time>
      </trkpt>
      <trkpt lat="44.80157" lon="3.01245">
        <ele>1099</ele>
        <time>2026-08-18T08:53:38.000Z</time>
      </trkpt>
      <trkpt lat="44.80158" lon="3.0122">
        <ele>1099</ele>
        <time>2026-08-18T08:53:58.000Z</time>
      </trkpt>
      <trkpt lat="44.80149" lon="3.01206">
        <ele>1099</ele>
        <time>2026-08-18T08:54:13.000Z</time>
      </trkpt>
      <trkpt lat="44.80154" lon="3.01209">
        <ele>1099</ele>
        <time>2026-08-18T08:54:19.000Z</time>
      </trkpt>
      <trkpt lat="44.80154" lon="3.01209">
        <ele>1099</ele>
        <time>2026-08-18T08:54:19.000Z</time>
      </trkpt>
      <trkpt lat="44.80154" lon="3.01209">
        <ele>1099</ele>
        <time>2026-08-18T08:54:19.000Z</time>
      </trkpt>
      <trkpt lat="44.80149" lon="3.01206">
        <ele>1099</ele>
        <time>2026-08-18T08:54:24.000Z</time>
      </trkpt>
      <trkpt lat="44.80126" lon="3.0115">
        <ele>1100</ele>
        <time>2026-08-18T08:55:27.000Z</time>
      </trkpt>
      <trkpt lat="44.80092" lon="3.01022">
        <ele>1103</ele>
        <time>2026-08-18T08:57:49.000Z</time>
      </trkpt>
      <trkpt lat="44.8006" lon="3.00945">
        <ele>1109</ele>
        <time>2026-08-18T09:00:03.000Z</time>
      </trkpt>
      <trkpt lat="44.80047" lon="3.00923">
        <ele>1111</ele>
        <time>2026-08-18T09:00:46.000Z</time>
      </trkpt>
      <trkpt lat="44.80047" lon="3.00923">
        <ele>1111</ele>
        <time>2026-08-18T08:05:14.000Z</time>
      </trkpt>
      <trkpt lat="44.80047" lon="3.00923">
        <ele>1111</ele>
        <time>2026-08-18T08:05:14.000Z</time>
      </trkpt>
      <trkpt lat="44.80038" lon="3.00913">
        <ele>1112</ele>
        <time>2026-08-18T08:05:38.000Z</time>
      </trkpt>
      <trkpt lat="44.80029" lon="3.0091">
        <ele>1113</ele>
        <time>2026-08-18T08:05:59.000Z</time>
      </trkpt>
      <trkpt lat="44.80017" lon="3.00898">
        <ele>1115</ele>
        <time>2026-08-18T08:06:37.000Z</time>
      </trkpt>
      <trkpt lat="44.79973" lon="3.00838">
        <ele>1122</ele>
        <time>2026-08-18T08:08:59.000Z</time>
      </trkpt>
      <trkpt lat="44.7994" lon="3.00829">
        <ele>1125</ele>
        <time>2026-08-18T08:10:09.000Z</time>
      </trkpt>
      <trkpt lat="44.79923" lon="3.0082">
        <ele>1126</ele>
        <time>2026-08-18T08:10:40.000Z</time>
      </trkpt>
      <trkpt lat="44.79883" lon="3.00805">
        <ele>1127</ele>
        <time>2026-08-18T08:11:38.000Z</time>
      </trkpt>
      <trkpt lat="44.79853" lon="3.00785">
        <ele>1128</ele>
        <time>2026-08-18T08:12:26.000Z</time>
      </trkpt>
      <trkpt lat="44.79796" lon="3.00738">
        <ele>1128</ele>
        <time>2026-08-18T08:13:42.000Z</time>
      </trkpt>
      <trkpt lat="44.7977" lon="3.00707">
        <ele>1129</ele>
        <time>2026-08-18T08:14:32.000Z</time>
      </trkpt>
      <trkpt lat="44.7977" lon="3.00708">
        <ele>1129</ele>
        <time>2026-08-18T08:14:32.000Z</time>
      </trkpt>
      <trkpt lat="44.7976" lon="3.00695">
        <ele>1130</ele>
        <time>2026-08-18T08:14:57.000Z</time>
      </trkpt>
      <trkpt lat="44.79699" lon="3.00559">
        <ele>1140</ele>
        <time>2026-08-18T08:18:51.000Z</time>
      </trkpt>
      <trkpt lat="44.79671" lon="3.00472">
        <ele>1147</ele>
        <time>2026-08-18T08:21:21.000Z</time>
      </trkpt>
      <trkpt lat="44.79666" lon="3.00446">
        <ele>1149</ele>
        <time>2026-08-18T08:22:04.000Z</time>
      </trkpt>
      <trkpt lat="44.79667" lon="3.00446">
        <ele>1149</ele>
        <time>2026-08-18T08:22:04.000Z</time>
      </trkpt>
      <trkpt lat="44.79654" lon="3.00365">
        <ele>1154</ele>
        <time>2026-08-18T08:24:03.000Z</time>
      </trkpt>
      <trkpt lat="44.7965" lon="3.00295">
        <ele>1159</ele>
        <time>2026-08-18T08:25:51.000Z</time>
      </trkpt>
      <trkpt lat="44.79655" lon="3.00248">
        <ele>1163</ele>
        <time>2026-08-18T08:27:11.000Z</time>
      </trkpt>
      <trkpt lat="44.79688" lon="3.00136">
        <ele>1171</ele>
        <time>2026-08-18T08:30:12.000Z</time>
      </trkpt>
      <trkpt lat="44.79698" lon="3.00117">
        <ele>1171</ele>
        <time>2026-08-18T08:30:31.000Z</time>
      </trkpt>
      <trkpt lat="44.79723" lon="3.00081">
        <ele>1175</ele>
        <time>2026-08-18T08:31:53.000Z</time>
      </trkpt>
      <trkpt lat="44.79727" lon="3.0007">
        <ele>1176</ele>
        <time>2026-08-18T08:32:13.000Z</time>
      </trkpt>
      <trkpt lat="44.79723" lon="3.00049">
        <ele>1179</ele>
        <time>2026-08-18T08:33:02.000Z</time>
      </trkpt>
      <trkpt lat="44.79719" lon="3.00045">
        <ele>1180</ele>
        <time>2026-08-18T08:33:18.000Z</time>
      </trkpt>
      <trkpt lat="44.79725" lon="3.00008">
        <ele>1183</ele>
        <time>2026-08-18T08:34:20.000Z</time>
      </trkpt>
      <trkpt lat="44.7972" lon="2.99907">
        <ele>1189</ele>
        <time>2026-08-18T08:36:44.000Z</time>
      </trkpt>
      <trkpt lat="44.79722" lon="2.99883">
        <ele>1191</ele>
        <time>2026-08-18T08:37:24.000Z</time>
      </trkpt>
      <trkpt lat="44.79736" lon="2.99833">
        <ele>1193</ele>
        <time>2026-08-18T08:38:28.000Z</time>
      </trkpt>
      <trkpt lat="44.79737" lon="2.99819">
        <ele>1194</ele>
        <time>2026-08-18T08:38:49.000Z</time>
      </trkpt>
      <trkpt lat="44.79733" lon="2.998">
        <ele>1195</ele>
        <time>2026-08-18T08:39:15.000Z</time>
      </trkpt>
      <trkpt lat="44.79728" lon="2.99787">
        <ele>1196</ele>
        <time>2026-08-18T08:39:38.000Z</time>
      </trkpt>
      <trkpt lat="44.79718" lon="2.99772">
        <ele>1197</ele>
        <time>2026-08-18T08:40:05.000Z</time>
      </trkpt>
      <trkpt lat="44.7971" lon="2.99769">
        <ele>1198</ele>
        <time>2026-08-18T08:40:25.000Z</time>
      </trkpt>
      <trkpt lat="44.79538" lon="2.99797">
        <ele>1211</ele>
        <time>2026-08-18T08:45:57.000Z</time>
      </trkpt>
      <trkpt lat="44.79323" lon="2.99832">
        <ele>1242</ele>
        <time>2026-08-18T08:55:24.000Z</time>
      </trkpt>
      <trkpt lat="44.7927" lon="2.99845">
        <ele>1248</ele>
        <time>2026-08-18T08:57:27.000Z</time>
      </trkpt>
      <trkpt lat="44.79159" lon="2.9986">
        <ele>1257</ele>
        <time>2026-08-18T09:01:08.000Z</time>
      </trkpt>
      <trkpt lat="44.79159" lon="2.9986">
        <ele>1257</ele>
        <time>2026-08-18T09:01:08.000Z</time>
      </trkpt>
      <trkpt lat="44.79147" lon="2.99869">
        <ele>1258</ele>
        <time>2026-08-18T09:01:34.000Z</time>
      </trkpt>
      <trkpt lat="44.79114" lon="2.99943">
        <ele>1261</ele>
        <time>2026-08-18T09:03:16.000Z</time>
      </trkpt>
      <trkpt lat="44.79091" lon="2.99967">
        <ele>1264</ele>
        <time>2026-08-18T09:04:19.000Z</time>
      </trkpt>
      <trkpt lat="44.79066" lon="2.99982">
        <ele>1268</ele>
        <time>2026-08-18T09:05:32.000Z</time>
      </trkpt>
      <trkpt lat="44.79046" lon="2.99987">
        <ele>1270</ele>
        <time>2026-08-18T09:06:15.000Z</time>
      </trkpt>
      <trkpt lat="44.79027" lon="2.99983">
        <ele>1272</ele>
        <time>2026-08-18T09:06:57.000Z</time>
      </trkpt>
      <trkpt lat="44.79019" lon="2.99975">
        <ele>1273</ele>
        <time>2026-08-18T09:07:18.000Z</time>
      </trkpt>
      <trkpt lat="44.79016" lon="2.99966">
        <ele>1274</ele>
        <time>2026-08-18T09:07:36.000Z</time>
      </trkpt>
      <trkpt lat="44.78999" lon="2.99975">
        <ele>1272</ele>
        <time>2026-08-18T09:07:57.000Z</time>
      </trkpt>
      <trkpt lat="44.7899" lon="2.9999">
        <ele>1271</ele>
        <time>2026-08-18T09:08:13.000Z</time>
      </trkpt>
      <trkpt lat="44.78956" lon="2.9999">
        <ele>1266</ele>
        <time>2026-08-18T09:08:52.000Z</time>
      </trkpt>
      <trkpt lat="44.7894" lon="2.99997">
        <ele>1264</ele>
        <time>2026-08-18T09:09:11.000Z</time>
      </trkpt>
      <trkpt lat="44.78928" lon="3.00008">
        <ele>1263</ele>
        <time>2026-08-18T09:09:28.000Z</time>
      </trkpt>
      <trkpt lat="44.78895" lon="3.00044">
        <ele>1261</ele>
        <time>2026-08-18T09:10:16.000Z</time>
      </trkpt>
      <trkpt lat="44.78829" lon="3.00116">
        <ele>1264</ele>
        <time>2026-08-18T09:12:22.000Z</time>
      </trkpt>
      <trkpt lat="44.78698" lon="3.00261">
        <ele>1278</ele>
        <time>2026-08-18T09:17:57.000Z</time>
      </trkpt>
      <trkpt lat="44.78566" lon="3.00405">
        <ele>1286</ele>
        <time>2026-08-18T09:22:30.000Z</time>
      </trkpt>
      <trkpt lat="44.78566" lon="3.00405">
        <ele>1286</ele>
        <time>2026-08-18T09:22:30.000Z</time>
      </trkpt>
      <trkpt lat="44.78519" lon="3.00454">
        <ele>1286</ele>
        <time>2026-08-18T09:23:37.000Z</time>
      </trkpt>
      <trkpt lat="44.78416" lon="3.00518">
        <ele>1275</ele>
        <time>2026-08-18T09:25:45.000Z</time>
      </trkpt>
      <trkpt lat="44.78416" lon="3.00518">
        <ele>1275</ele>
        <time>2026-08-18T09:25:45.000Z</time>
      </trkpt>
      <trkpt lat="44.78436" lon="3.00624">
        <ele>1270</ele>
        <time>2026-08-18T09:27:14.000Z</time>
      </trkpt>
      <trkpt lat="44.78459" lon="3.00738">
        <ele>1259</ele>
        <time>2026-08-18T09:28:50.000Z</time>
      </trkpt>
      <trkpt lat="44.78465" lon="3.00744">
        <ele>1259</ele>
        <time>2026-08-18T09:28:59.000Z</time>
      </trkpt>
      <trkpt lat="44.78482" lon="3.0074">
        <ele>1260</ele>
        <time>2026-08-18T09:29:28.000Z</time>
      </trkpt>
      <trkpt lat="44.78482" lon="3.00743">
        <ele>1259</ele>
        <time>2026-08-18T09:00:23.000Z</time>
      </trkpt>
      <trkpt lat="44.78482" lon="3.0074">
        <ele>1260</ele>
        <time>2026-08-18T09:00:36.000Z</time>
      </trkpt>
      <trkpt lat="44.78535" lon="3.00722">
        <ele>1259</ele>
        <time>2026-08-18T09:01:39.000Z</time>
      </trkpt>
      <trkpt lat="44.78571" lon="3.00701">
        <ele>1258</ele>
        <time>2026-08-18T09:02:23.000Z</time>
      </trkpt>
      <trkpt lat="44.78596" lon="3.00679">
        <ele>1256</ele>
        <time>2026-08-18T09:02:57.000Z</time>
      </trkpt>
      <trkpt lat="44.78632" lon="3.00638">
        <ele>1254</ele>
        <time>2026-08-18T09:03:49.000Z</time>
      </trkpt>
      <trkpt lat="44.78695" lon="3.00588">
        <ele>1251</ele>
        <time>2026-08-18T09:05:11.000Z</time>
      </trkpt>
      <trkpt lat="44.78695" lon="3.00588">
        <ele>1251</ele>
        <time>2026-08-18T09:05:11.000Z</time>
      </trkpt>
      <trkpt lat="44.78727" lon="3.00561">
        <ele>1248</ele>
        <time>2026-08-18T09:05:54.000Z</time>
      </trkpt>
      <trkpt lat="44.78727" lon="3.00561">
        <ele>1248</ele>
        <time>2026-08-18T09:05:54.000Z</time>
      </trkpt>
      <trkpt lat="44.78742" lon="3.00547">
        <ele>1247</ele>
        <time>2026-08-18T09:06:14.000Z</time>
      </trkpt>
      <trkpt lat="44.78687" lon="3.00627">
        <ele>1245</ele>
        <time>2026-08-18T09:07:44.000Z</time>
      </trkpt>
      <trkpt lat="44.78648" lon="3.00667">
        <ele>1240</ele>
        <time>2026-08-18T09:08:40.000Z</time>
      </trkpt>
      <trkpt lat="44.7864" lon="3.00678">
        <ele>1240</ele>
        <time>2026-08-18T09:08:53.000Z</time>
      </trkpt>
      <trkpt lat="44.78622" lon="3.00725">
        <ele>1236</ele>
        <time>2026-08-18T09:09:36.000Z</time>
      </trkpt>
      <trkpt lat="44.78604" lon="3.00752">
        <ele>1236</ele>
        <time>2026-08-18T09:10:07.000Z</time>
      </trkpt>
      <trkpt lat="44.78585" lon="3.0078">
        <ele>1231</ele>
        <time>2026-08-18T09:10:38.000Z</time>
      </trkpt>
      <trkpt lat="44.78561" lon="3.00806">
        <ele>1229</ele>
        <time>2026-08-18T09:11:13.000Z</time>
      </trkpt>
      <trkpt lat="44.78428" lon="3.00909">
        <ele>1213</ele>
        <time>2026-08-18T09:14:07.000Z</time>
      </trkpt>
      <trkpt lat="44.78418" lon="3.00925">
        <ele>1213</ele>
        <time>2026-08-18T09:14:24.000Z</time>
      </trkpt>
      <trkpt lat="44.78421" lon="3.00926">
        <ele>1212</ele>
        <time>2026-08-18T09:10:32.000Z</time>
      </trkpt>
      <trkpt lat="44.78418" lon="3.00925">
        <ele>1213</ele>
        <time>2026-08-18T09:10:46.000Z</time>
      </trkpt>
      <trkpt lat="44.78417" lon="3.00939">
        <ele>1212</ele>
        <time>2026-08-18T09:10:58.000Z</time>
      </trkpt>
      <trkpt lat="44.78419" lon="3.00961">
        <ele>1212</ele>
        <time>2026-08-18T09:11:15.000Z</time>
      </trkpt>
      <trkpt lat="44.78429" lon="3.00985">
        <ele>1211</ele>
        <time>2026-08-18T09:11:38.000Z</time>
      </trkpt>
      <trkpt lat="44.78484" lon="3.00996">
        <ele>1211</ele>
        <time>2026-08-18T09:12:42.000Z</time>
      </trkpt>
      <trkpt lat="44.78495" lon="3.01009">
        <ele>1211</ele>
        <time>2026-08-18T09:12:58.000Z</time>
      </trkpt>
      <trkpt lat="44.78494" lon="3.01009">
        <ele>1211</ele>
        <time>2026-08-18T09:12:58.000Z</time>
      </trkpt>
      <trkpt lat="44.78419" lon="3.01037">
        <ele>1218</ele>
        <time>2026-08-18T09:15:39.000Z</time>
      </trkpt>
      <trkpt lat="44.78386" lon="3.01056">
        <ele>1220</ele>
        <time>2026-08-18T09:16:41.000Z</time>
      </trkpt>
      <trkpt lat="44.78357" lon="3.01076">
        <ele>1223</ele>
        <time>2026-08-18T09:17:48.000Z</time>
      </trkpt>
      <trkpt lat="44.78289" lon="3.01137">
        <ele>1226</ele>
        <time>2026-08-18T09:19:52.000Z</time>
      </trkpt>
      <trkpt lat="44.78257" lon="3.01157">
        <ele>1229</ele>
        <time>2026-08-18T09:21:03.000Z</time>
      </trkpt>
      <trkpt lat="44.78236" lon="3.01162">
        <ele>1230</ele>
        <time>2026-08-18T09:21:37.000Z</time>
      </trkpt>
      <trkpt lat="44.78147" lon="3.01145">
        <ele>1234</ele>
        <time>2026-08-18T09:24:02.000Z</time>
      </trkpt>
      <trkpt lat="44.77902" lon="3.01142">
        <ele>1246</ele>
        <time>2026-08-18T09:30:46.000Z</time>
      </trkpt>
      <trkpt lat="44.77852" lon="3.01138">
        <ele>1247</ele>
        <time>2026-08-18T09:31:54.000Z</time>
      </trkpt>
      <trkpt lat="44.77754" lon="3.01117">
        <ele>1249</ele>
        <time>2026-08-18T09:34:08.000Z</time>
      </trkpt>
      <trkpt lat="44.77678" lon="3.0112">
        <ele>1250</ele>
        <time>2026-08-18T09:35:45.000Z</time>
      </trkpt>
      <trkpt lat="44.7767" lon="3.01117">
        <ele>1250</ele>
        <time>2026-08-18T09:35:55.000Z</time>
      </trkpt>
      <trkpt lat="44.77665" lon="3.01107">
        <ele>1250</ele>
        <time>2026-08-18T09:36:05.000Z</time>
      </trkpt>
      <trkpt lat="44.77655" lon="3.01065">
        <ele>1251</ele>
        <time>2026-08-18T09:36:51.000Z</time>
      </trkpt>
      <trkpt lat="44.77645" lon="3.01039">
        <ele>1253</ele>
        <time>2026-08-18T09:37:35.000Z</time>
      </trkpt>
      <trkpt lat="44.77645" lon="3.01039">
        <ele>1253</ele>
        <time>2026-08-18T09:37:35.000Z</time>
      </trkpt>
      <trkpt lat="44.77622" lon="3.01123">
        <ele>1246</ele>
        <time>2026-08-18T09:38:48.000Z</time>
      </trkpt>
      <trkpt lat="44.7761" lon="3.0118">
        <ele>1238</ele>
        <time>2026-08-18T09:39:36.000Z</time>
      </trkpt>
      <trkpt lat="44.77595" lon="3.01226">
        <ele>1233</ele>
        <time>2026-08-18T09:40:17.000Z</time>
      </trkpt>
      <trkpt lat="44.7758" lon="3.01272">
        <ele>1231</ele>
        <time>2026-08-18T09:40:58.000Z</time>
      </trkpt>
      <trkpt lat="44.77563" lon="3.01344">
        <ele>1227</ele>
        <time>2026-08-18T09:41:59.000Z</time>
      </trkpt>
      <trkpt lat="44.77519" lon="3.01489">
        <ele>1219</ele>
        <time>2026-08-18T09:44:08.000Z</time>
      </trkpt>
      <trkpt lat="44.77482" lon="3.0163">
        <ele>1217</ele>
        <time>2026-08-18T09:46:10.000Z</time>
      </trkpt>
      <trkpt lat="44.77447" lon="3.01717">
        <ele>1217</ele>
        <time>2026-08-18T09:47:31.000Z</time>
      </trkpt>
      <trkpt lat="44.77433" lon="3.01746">
        <ele>1215</ele>
        <time>2026-08-18T09:48:00.000Z</time>
      </trkpt>
      <trkpt lat="44.77417" lon="3.01769">
        <ele>1214</ele>
        <time>2026-08-18T09:48:26.000Z</time>
      </trkpt>
      <trkpt lat="44.77417" lon="3.01768">
        <ele>1214</ele>
        <time>2026-08-18T09:48:26.000Z</time>
      </trkpt>
      <trkpt lat="44.77353" lon="3.01849">
        <ele>1207</ele>
        <time>2026-08-18T09:50:04.000Z</time>
      </trkpt>
      <trkpt lat="44.77316" lon="3.01872">
        <ele>1203</ele>
        <time>2026-08-18T09:50:50.000Z</time>
      </trkpt>
      <trkpt lat="44.77307" lon="3.01893">
        <ele>1204</ele>
        <time>2026-08-18T09:51:21.000Z</time>
      </trkpt>
      <trkpt lat="44.7729" lon="3.01911">
        <ele>1203</ele>
        <time>2026-08-18T09:51:45.000Z</time>
      </trkpt>
      <trkpt lat="44.77262" lon="3.01954">
        <ele>1200</ele>
        <time>2026-08-18T09:52:32.000Z</time>
      </trkpt>
      <trkpt lat="44.77217" lon="3.02">
        <ele>1189</ele>
        <time>2026-08-18T09:53:35.000Z</time>
      </trkpt>
      <trkpt lat="44.7718" lon="3.02016">
        <ele>1182</ele>
        <time>2026-08-18T09:54:19.000Z</time>
      </trkpt>
      <trkpt lat="44.77149" lon="3.0204">
        <ele>1175</ele>
        <time>2026-08-18T09:55:00.000Z</time>
      </trkpt>
      <trkpt lat="44.77114" lon="3.02053">
        <ele>1169</ele>
        <time>2026-08-18T09:55:41.000Z</time>
      </trkpt>
      <trkpt lat="44.7707" lon="3.02084">
        <ele>1159</ele>
        <time>2026-08-18T09:56:38.000Z</time>
      </trkpt>
      <trkpt lat="44.77046" lon="3.02096">
        <ele>1156</ele>
        <time>2026-08-18T09:57:07.000Z</time>
      </trkpt>
      <trkpt lat="44.77038" lon="3.02121">
        <ele>1155</ele>
        <time>2026-08-18T09:57:30.000Z</time>
      </trkpt>
      <trkpt lat="44.77037" lon="3.02121">
        <ele>1155</ele>
        <time>2026-08-18T09:45:44.000Z</time>
      </trkpt>
      <trkpt lat="44.77038" lon="3.02121">
        <ele>1155</ele>
        <time>2026-08-18T09:45:45.000Z</time>
      </trkpt>
      <trkpt lat="44.77034" lon="3.02146">
        <ele>1155</ele>
        <time>2026-08-18T09:46:06.000Z</time>
      </trkpt>
      <trkpt lat="44.77038" lon="3.02178">
        <ele>1154</ele>
        <time>2026-08-18T09:46:32.000Z</time>
      </trkpt>
      <trkpt lat="44.77057" lon="3.02247">
        <ele>1153</ele>
        <time>2026-08-18T09:47:32.000Z</time>
      </trkpt>
      <trkpt lat="44.77084" lon="3.02313">
        <ele>1152</ele>
        <time>2026-08-18T09:48:33.000Z</time>
      </trkpt>
      <trkpt lat="44.77096" lon="3.02403">
        <ele>1149</ele>
        <time>2026-08-18T09:49:47.000Z</time>
      </trkpt>
      <trkpt lat="44.771" lon="3.02426">
        <ele>1148</ele>
        <time>2026-08-18T09:50:07.000Z</time>
      </trkpt>
      <trkpt lat="44.77113" lon="3.02459">
        <ele>1147</ele>
        <time>2026-08-18T09:50:37.000Z</time>
      </trkpt>
      <trkpt lat="44.77113" lon="3.02459">
        <ele>1147</ele>
        <time>2026-08-18T09:50:37.000Z</time>
      </trkpt>
      <trkpt lat="44.77132" lon="3.02491">
        <ele>1144</ele>
        <time>2026-08-18T09:51:11.000Z</time>
      </trkpt>
      <trkpt lat="44.77157" lon="3.02522">
        <ele>1143</ele>
        <time>2026-08-18T09:51:49.000Z</time>
      </trkpt>
      <trkpt lat="44.77191" lon="3.02556">
        <ele>1140</ele>
        <time>2026-08-18T09:52:37.000Z</time>
      </trkpt>
      <trkpt lat="44.77204" lon="3.02578">
        <ele>1140</ele>
        <time>2026-08-18T09:53:00.000Z</time>
      </trkpt>
      <trkpt lat="44.77219" lon="3.02623">
        <ele>1138</ele>
        <time>2026-08-18T09:53:40.000Z</time>
      </trkpt>
      <trkpt lat="44.77234" lon="3.02688">
        <ele>1136</ele>
        <time>2026-08-18T09:54:36.000Z</time>
      </trkpt>
      <trkpt lat="44.77232" lon="3.02712">
        <ele>1133</ele>
        <time>2026-08-18T09:54:55.000Z</time>
      </trkpt>
      <trkpt lat="44.7724" lon="3.02772">
        <ele>1123</ele>
        <time>2026-08-18T09:55:44.000Z</time>
      </trkpt>
      <trkpt lat="44.77255" lon="3.02801">
        <ele>1119</ele>
        <time>2026-08-18T09:56:14.000Z</time>
      </trkpt>
      <trkpt lat="44.77269" lon="3.02817">
        <ele>1118</ele>
        <time>2026-08-18T09:56:34.000Z</time>
      </trkpt>
      <trkpt lat="44.77288" lon="3.02861">
        <ele>1112</ele>
        <time>2026-08-18T09:57:16.000Z</time>
      </trkpt>
      <trkpt lat="44.77287" lon="3.02862">
        <ele>1111</ele>
        <time>2026-08-18T09:55:08.000Z</time>
      </trkpt>
      <trkpt lat="44.77288" lon="3.02861">
        <ele>1112</ele>
        <time>2026-08-18T09:55:20.000Z</time>
      </trkpt>
      <trkpt lat="44.77301" lon="3.02889">
        <ele>1109</ele>
        <time>2026-08-18T09:55:47.000Z</time>
      </trkpt>
      <trkpt lat="44.7732" lon="3.02911">
        <ele>1108</ele>
        <time>2026-08-18T09:56:15.000Z</time>
      </trkpt>
      <trkpt lat="44.77336" lon="3.02925">
        <ele>1105</ele>
        <time>2026-08-18T09:56:37.000Z</time>
      </trkpt>
      <trkpt lat="44.77371" lon="3.02942">
        <ele>1101</ele>
        <time>2026-08-18T09:57:19.000Z</time>
      </trkpt>
      <trkpt lat="44.77415" lon="3.02986">
        <ele>1094</ele>
        <time>2026-08-18T09:58:21.000Z</time>
      </trkpt>
      <trkpt lat="44.77415" lon="3.02986">
        <ele>1094</ele>
        <time>2026-08-18T09:58:21.000Z</time>
      </trkpt>
      <trkpt lat="44.77425" lon="3.02991">
        <ele>1094</ele>
        <time>2026-08-18T09:58:33.000Z</time>
      </trkpt>
      <trkpt lat="44.77462" lon="3.02998">
        <ele>1088</ele>
        <time>2026-08-18T09:59:16.000Z</time>
      </trkpt>
      <trkpt lat="44.77464" lon="3.0301">
        <ele>1085</ele>
        <time>2026-08-18T09:59:26.000Z</time>
      </trkpt>
      <trkpt lat="44.77474" lon="3.03019">
        <ele>1085</ele>
        <time>2026-08-18T09:59:40.000Z</time>
      </trkpt>
      <trkpt lat="44.77483" lon="3.03034">
        <ele>1083</ele>
        <time>2026-08-18T09:59:56.000Z</time>
      </trkpt>
      <trkpt lat="44.77483" lon="3.03034">
        <ele>1083</ele>
        <time>2026-08-18T09:59:56.000Z</time>
      </trkpt>
      <trkpt lat="44.77468" lon="3.03055">
        <ele>1082</ele>
        <time>2026-08-18T10:00:32.000Z</time>
      </trkpt>
    </trkseg>
  </trk>
</gpx>